Time;durP1;ratioP1;P1;durP2;ratioP2;P2;SDS_P1;SDS_P2;PMS_P1;PMS_P2;Temp;Humidity;BMP_temperature;BMP_pressure;BME280_temperature;BME280_humidity;BME280_pressure;Samples;Min_cycle;Max_cycle;Signal;HPM_P1;HPM_P2
2022/04/13 00:01:27;;;;;;;;;3.00;2.00;;;;;-147.47;100.00;64613.53;5049122;28;29477;-73
2022/04/13 00:03:52;;;;;;;;;3.00;2.67;;;;;-147.47;100.00;64613.53;5067648;28;29863;-72
2022/04/13 00:06:19;;;;;;;;;1.33;1.33;;;;;-147.47;100.00;64613.53;5080604;28;28539;-73
2022/04/13 00:08:44;;;;;;;;;1.00;1.00;;;;;-147.47;100.00;64613.53;5044815;28;28482;-73
2022/04/13 00:11:11;;;;;;;;;2.00;1.67;;;;;-147.47;100.00;64613.53;5047254;28;28522;-74
2022/04/13 00:13:36;;;;;;;;;1.00;1.00;;;;;-147.47;100.00;64613.53;5047093;28;28943;-74
2022/04/13 00:16:02;;;;;;;;;1.00;1.00;;;;;-147.47;100.00;64613.53;5047237;28;28439;-74
2022/04/13 00:18:28;;;;;;;;;2.00;2.00;;;;;-147.47;100.00;64613.53;5052702;28;29040;-75
2022/04/13 00:20:53;;;;;;;;;2.00;1.67;;;;;-147.47;100.00;64613.53;5066099;28;30124;-74
2022/04/13 00:23:19;;;;;;;;;3.33;2.00;;;;;-147.47;100.00;64613.53;5049351;28;28640;-75
2022/04/13 00:25:44;;;;;;;;;1.33;1.33;;;;;-147.47;100.00;64613.53;5067014;28;28847;-75
2022/04/13 00:28:10;;;;;;;;;1.00;1.00;;;;;-147.47;100.00;64613.53;5067432;28;28493;-75
2022/04/13 00:30:39;;;;;;;;;1.67;1.00;;;;;-147.47;100.00;64613.53;5048707;28;29703;-74
2022/04/13 00:33:04;;;;;;;;;1.00;1.00;;;;;-147.47;100.00;64613.53;5049441;28;29738;-74
2022/04/13 00:35:30;;;;;;;;;1.67;1.00;;;;;-147.47;100.00;64613.53;5067913;28;28505;-73
2022/04/13 00:37:55;;;;;;;;;2.00;2.00;;;;;-147.47;100.00;64613.53;5049003;28;28419;-74
2022/04/13 00:40:20;;;;;;;;;4.00;1.00;;;;;-147.47;100.00;64613.53;5058228;28;28569;-74
2022/04/13 00:42:46;;;;;;;;;3.00;3.00;;;;;-147.47;100.00;64613.53;5045505;28;28673;-75
2022/04/13 00:45:11;;;;;;;;;2.00;1.33;;;;;-147.47;100.00;64613.53;5046478;28;28606;-74
2022/04/13 00:47:40;;;;;;;;;1.00;1.00;;;;;-147.47;100.00;64613.53;5047185;28;28834;-75
2022/04/13 00:50:07;;;;;;;;;2.00;1.00;;;;;-147.47;100.00;64613.53;5086818;28;28796;-72
2022/04/13 00:52:36;;;;;;;;;1.00;1.00;;;;;-147.47;100.00;64613.53;5087620;28;29127;-72
2022/04/13 00:55:02;;;;;;;;;4.00;2.67;;;;;-147.47;100.00;64613.53;5087796;28;28585;-74
2022/04/13 00:57:30;;;;;;;;;3.00;1.67;;;;;-147.47;100.00;64613.53;5087316;28;28573;-73
2022/04/13 00:59:57;;;;;;;;;2.33;2.00;;;;;-147.47;100.00;64613.53;5074617;28;28551;-73
2022/04/13 01:02:23;;;;;;;;;2.00;2.00;;;;;-147.47;100.00;64613.53;5045874;28;29972;-81
2022/04/13 01:04:50;;;;;;;;;2.00;2.00;;;;;-147.47;100.00;64613.53;5048305;28;28521;-79
2022/04/13 01:07:16;;;;;;;;;2.00;1.00;;;;;-147.47;100.00;64613.53;5061674;28;28559;-78
2022/04/13 01:09:41;;;;;;;;;2.00;2.00;;;;;-147.47;100.00;64613.53;5068070;28;28535;-80
2022/04/13 01:12:07;;;;;;;;;1.00;1.00;;;;;-147.47;100.00;64613.53;5068603;28;28931;-80
2022/04/13 01:14:34;;;;;;;;;1.75;1.75;;;;;-147.47;100.00;64613.53;5066975;28;28483;-80
2022/04/13 01:17:00;;;;;;;;;2.00;1.00;;;;;-147.47;100.00;64613.53;5068413;28;28590;-80
2022/04/13 01:19:27;;;;;;;;;2.00;2.00;;;;;-147.47;100.00;64613.53;5044915;28;28924;-80
2022/04/13 01:21:53;;;;;;;;;3.33;3.33;;;;;-147.47;100.00;64613.53;5028100;28;30614;-79
2022/04/13 01:24:20;;;;;;;;;1.33;1.33;;;;;-147.47;100.00;64613.53;5035485;28;28600;-80
2022/04/13 01:26:46;;;;;;;;;1.67;1.00;;;;;-147.47;100.00;64613.53;5072456;28;28533;-82
2022/04/13 01:29:12;;;;;;;;;1.67;1.67;;;;;-147.47;100.00;64613.53;5057272;28;28546;-82
2022/04/13 01:31:39;;;;;;;;;1.33;1.33;;;;;-147.47;100.00;64613.53;5056553;28;29538;-80
2022/04/13 01:34:06;;;;;;;;;2.00;2.00;;;;;-147.47;100.00;64613.53;5054277;28;29910;-79
2022/04/13 01:36:36;;;;;;;;;2.00;2.00;;;;;-147.47;100.00;64613.53;5053728;28;28427;-73
2022/04/13 01:39:04;;;;;;;;;2.00;2.00;;;;;-147.47;100.00;64613.53;5053243;28;28542;-75
2022/04/13 01:41:29;;;;;;;;;2.33;1.00;;;;;-147.47;100.00;64613.53;5038868;28;28857;-80
2022/04/13 01:43:55;;;;;;;;;2.00;1.67;;;;;-147.47;100.00;64613.53;5065495;28;29515;-80
2022/04/13 01:46:21;;;;;;;;;1.00;1.00;;;;;-147.47;100.00;64613.53;5074866;28;28738;-74
2022/04/13 01:48:46;;;;;;;;;1.33;1.33;;;;;-147.47;100.00;64613.53;5070838;28;29208;-80
2022/04/13 01:51:12;;;;;;;;;3.00;2.00;;;;;-147.47;100.00;64613.53;5070761;28;28788;-80
2022/04/13 01:53:40;;;;;;;;;4.00;3.00;;;;;-147.47;100.00;64613.53;5073782;28;28391;-73
2022/04/13 01:56:06;;;;;;;;;0.00;0.00;;;;;-147.47;100.00;64613.53;5076777;28;28396;-79
2022/04/13 01:58:31;;;;;;;;;2.00;2.00;;;;;-147.47;100.00;64613.53;5074731;28;28426;-78
2022/04/13 02:00:57;;;;;;;;;1.33;1.33;;;;;-147.47;100.00;64613.53;5076402;28;28517;-79
2022/04/13 02:03:24;;;;;;;;;1.00;1.00;;;;;-147.47;100.00;64613.53;5075725;28;28462;-73
2022/04/13 02:05:52;;;;;;;;;3.00;3.00;;;;;-147.47;100.00;64613.53;5077523;28;28007;-81
2022/04/13 02:08:19;;;;;;;;;2.67;2.67;;;;;-147.47;100.00;64613.53;5074773;28;28074;-79
2022/04/13 02:10:44;;;;;;;;;2.00;1.00;;;;;-147.47;100.00;64613.53;5029690;28;29261;-80
2022/04/13 02:13:10;;;;;;;;;2.67;1.67;;;;;-147.47;100.00;64613.53;5056484;28;28435;-74
2022/04/13 02:15:36;;;;;;;;;1.67;1.67;;;;;-147.47;100.00;64613.53;5068715;28;28491;-79
2022/04/13 02:18:02;;;;;;;;;3.33;3.00;;;;;-147.47;100.00;64613.53;5075162;28;28839;-80
2022/04/13 02:20:31;;;;;;;;;3.33;2.00;;;;;-147.47;100.00;64613.53;5084125;28;28550;-73
2022/04/13 02:22:56;;;;;;;;;1.00;1.00;;;;;-147.47;100.00;64613.53;5048345;28;28536;-79
2022/04/13 02:25:22;;;;;;;;;2.00;2.00;;;;;-147.47;100.00;64613.53;5067638;28;28821;-79
2022/04/13 02:27:47;;;;;;;;;3.00;3.00;;;;;-147.47;100.00;64613.53;5068312;28;28674;-79
2022/04/13 02:30:13;;;;;;;;;3.00;3.00;;;;;-147.47;100.00;64613.53;5070370;28;29120;-79
2022/04/13 02:32:41;;;;;;;;;1.67;1.67;;;;;-147.47;100.00;64613.53;5080326;28;28710;-79
2022/04/13 02:35:07;;;;;;;;;3.00;2.00;;;;;-147.47;100.00;64613.53;5083069;28;28413;-78
2022/04/13 02:37:33;;;;;;;;;1.00;1.00;;;;;-147.47;100.00;64613.53;5082462;28;27949;-78
2022/04/13 02:39:58;;;;;;;;;5.00;3.00;;;;;-147.47;100.00;64613.53;5081195;28;28565;-79
2022/04/13 02:42:24;;;;;;;;;5.67;4.33;;;;;-147.47;100.00;64613.53;5069494;28;28447;-74
2022/04/13 02:44:49;;;;;;;;;2.00;2.00;;;;;-147.47;100.00;64613.53;5056303;28;28815;-78
2022/04/13 02:47:15;;;;;;;;;3.00;1.67;;;;;-147.47;100.00;64613.53;5051609;28;29387;-80
2022/04/13 02:49:42;;;;;;;;;4.33;2.67;;;;;-147.47;100.00;64613.53;5076339;28;28466;-74
2022/04/13 02:52:08;;;;;;;;;4.25;3.75;;;;;-147.47;100.00;64613.53;5051504;28;28399;-78
2022/04/13 02:54:33;;;;;;;;;6.67;3.00;;;;;-147.47;100.00;64613.53;5042968;28;27850;-80
2022/04/13 02:56:59;;;;;;;;;3.67;3.67;;;;;-147.47;100.00;64613.53;5053052;28;28388;-73
2022/04/13 02:59:24;;;;;;;;;4.00;3.00;;;;;-147.47;100.00;64613.53;5072590;28;28551;-74
2022/04/13 03:01:50;;;;;;;;;3.67;3.00;;;;;-147.47;100.00;64613.53;5067610;28;28967;-79
2022/04/13 03:04:16;;;;;;;;;5.00;3.00;;;;;-147.47;100.00;64613.53;5059328;28;28966;-80
2022/04/13 03:06:42;;;;;;;;;5.33;3.67;;;;;-147.47;100.00;64613.53;5055270;28;28635;-73
2022/04/13 03:09:07;;;;;;;;;3.00;3.00;;;;;-147.47;100.00;64613.53;5038739;28;29002;-74
2022/04/13 03:11:33;;;;;;;;;4.00;4.00;;;;;-147.47;100.00;64613.53;5045060;28;28613;-74
2022/04/13 03:13:58;;;;;;;;;3.00;2.33;;;;;-147.47;100.00;64613.53;5065430;28;28959;-76
2022/04/13 03:16:24;;;;;;;;;2.00;2.00;;;;;-147.47;100.00;64613.53;5068121;28;28818;-75
2022/04/13 03:18:49;;;;;;;;;3.33;3.00;;;;;-147.47;100.00;64613.53;5050145;28;29647;-73
2022/04/13 03:21:15;;;;;;;;;3.33;3.00;;;;;-147.47;100.00;64613.53;5049735;28;28927;-73
2022/04/13 03:23:40;;;;;;;;;4.00;2.00;;;;;-147.47;100.00;64613.53;5067312;28;29122;-73
2022/04/13 03:26:07;;;;;;;;;4.33;3.00;;;;;-147.47;100.00;64613.53;5067532;28;28431;-73
2022/04/13 03:28:33;;;;;;;;;6.00;6.00;;;;;-147.47;100.00;64613.53;5050847;28;28566;-80
2022/04/13 03:30:58;;;;;;;;;4.67;4.00;;;;;-147.47;100.00;64613.53;5068745;28;28411;-73
2022/04/13 03:33:24;;;;;;;;;3.33;3.33;;;;;-147.47;100.00;64613.53;5068636;28;29065;-74
2022/04/13 03:35:49;;;;;;;;;6.33;4.67;;;;;-147.47;100.00;64613.53;5068448;28;28415;-76
2022/04/13 03:38:15;;;;;;;;;4.33;3.00;;;;;-147.47;100.00;64613.53;5069033;28;29969;-74
2022/04/13 03:40:41;;;;;;;;;4.33;3.33;;;;;-147.47;100.00;64613.53;5048328;28;28859;-73
2022/04/13 03:43:06;;;;;;;;;4.00;3.00;;;;;-147.47;100.00;64613.53;5047736;28;29030;-74
2022/04/13 03:45:32;;;;;;;;;6.00;4.00;;;;;-147.47;100.00;64613.53;5047303;28;29181;-75
2022/04/13 03:47:57;;;;;;;;;3.00;3.00;;;;;-147.47;100.00;64613.53;5076661;28;28773;-73
2022/04/13 03:50:23;;;;;;;;;5.33;4.00;;;;;-147.47;100.00;64613.53;5088752;28;28888;-73
2022/04/13 03:52:48;;;;;;;;;3.00;3.00;;;;;-147.47;100.00;64613.53;5088301;28;28850;-72
2022/04/13 03:55:14;;;;;;;;;3.00;3.00;;;;;-147.47;100.00;64613.53;5069974;28;30120;-73
2022/04/13 03:57:39;;;;;;;;;4.33;3.33;;;;;-147.47;100.00;64613.53;5053988;28;29141;-73
2022/04/13 04:00:07;;;;;;;;;4.33;4.33;;;;;-147.47;100.00;64613.53;5056034;28;28560;-73
2022/04/13 04:02:36;;;;;;;;;3.00;3.00;;;;;-147.47;100.00;64613.53;5061958;28;28615;-74
2022/04/13 04:05:02;;;;;;;;;4.00;4.00;;;;;-147.47;100.00;64613.53;5037697;28;28872;-73
2022/04/13 04:07:28;;;;;;;;;4.67;4.67;;;;;-147.47;100.00;64613.53;5039761;28;30094;-73
2022/04/13 04:09:53;;;;;;;;;7.33;5.00;;;;;-147.47;100.00;64613.53;5056563;28;28681;-72
2022/04/13 04:12:19;;;;;;;;;3.67;3.33;;;;;-147.47;100.00;64613.53;5050743;28;28931;-73
2022/04/13 04:14:44;;;;;;;;;5.00;4.00;;;;;-147.47;100.00;64613.53;5047749;28;28801;-75
2022/04/13 04:17:10;;;;;;;;;5.00;3.67;;;;;-147.47;100.00;64613.53;5049972;28;29446;-72
2022/04/13 04:19:35;;;;;;;;;5.00;5.00;;;;;-147.47;100.00;64613.53;5029477;28;28866;-73
2022/04/13 04:22:00;;;;;;;;;4.00;4.00;;;;;-147.47;100.00;64613.53;5047329;28;29049;-75
2022/04/13 04:24:26;;;;;;;;;8.00;6.33;;;;;-147.47;100.00;64613.53;5047820;28;28450;-74
2022/04/13 04:26:52;;;;;;;;;8.00;7.00;;;;;-147.47;100.00;64613.53;5029117;28;28467;-73
2022/04/13 04:29:17;;;;;;;;;9.67;7.00;;;;;-147.47;100.00;64613.53;5048803;28;28755;-75
2022/04/13 04:31:53;;;;;;;;;7.33;5.00;;;;;-147.47;100.00;64613.53;5050640;28;28575;-72
2022/04/13 04:34:20;;;;;;;;;20.00;19.00;;;;;-147.47;100.00;64613.53;5048365;28;28595;-78
2022/04/13 04:36:46;;;;;;;;;8.00;7.33;;;;;-147.47;100.00;64613.53;5040926;28;30955;-79
2022/04/13 04:39:12;;;;;;;;;24.67;21.33;;;;;-147.47;100.00;64613.53;5045894;28;29272;-82
2022/04/13 04:41:40;;;;;;;;;32.67;25.33;;;;;-147.47;100.00;64613.53;5048223;28;28621;-79
2022/04/13 04:44:07;;;;;;;;;7.33;7.33;;;;;-147.47;100.00;64613.53;5053590;28;28934;-79
2022/04/13 04:46:32;;;;;;;;;10.00;8.00;;;;;-147.47;100.00;64613.53;5055330;28;29584;-79
2022/04/13 04:48:58;;;;;;;;;8.67;8.00;;;;;-147.47;100.00;64613.53;5047542;28;28688;-80
2022/04/13 04:51:23;;;;;;;;;8.33;8.33;;;;;-147.47;100.00;64613.53;5053357;28;28759;-80
2022/04/13 04:53:49;;;;;;;;;9.33;6.67;;;;;-147.47;100.00;64613.53;5049404;28;28787;-79
2022/04/13 04:56:15;;;;;;;;;9.00;4.67;;;;;-147.47;100.00;64613.53;5055754;28;29793;-74
2022/04/13 04:58:41;;;;;;;;;5.67;4.33;;;;;-147.47;100.00;64613.53;5048090;28;29193;-74
2022/04/13 05:01:06;;;;;;;;;9.00;6.33;;;;;-147.47;100.00;64613.53;5038462;28;29234;-76
2022/04/13 05:03:33;;;;;;;;;8.00;7.33;;;;;-147.47;100.00;64613.53;5049664;28;28596;-75
2022/04/13 05:05:58;;;;;;;;;7.00;6.00;;;;;-147.47;100.00;64613.53;5045163;28;29651;-77
2022/04/13 05:08:24;;;;;;;;;6.33;5.33;;;;;-147.47;100.00;64613.53;5053526;28;28530;-76
2022/04/13 05:10:53;;;;;;;;;7.67;6.67;;;;;-147.47;100.00;64613.53;5058168;28;28895;-77
2022/04/13 05:13:18;;;;;;;;;10.00;8.33;;;;;-147.47;100.00;64613.53;5055347;28;28494;-75
2022/04/13 05:15:47;;;;;;;;;8.33;6.00;;;;;-147.47;100.00;64613.53;5043289;28;29616;-80
2022/04/13 05:18:13;;;;;;;;;6.33;5.33;;;;;-147.47;100.00;64613.53;5054416;28;28633;-77
2022/04/13 05:20:55;;;;;;;;;7.00;7.00;;;;;-147.47;100.00;64613.53;5065078;28;28467;-85
2022/04/13 05:23:21;;;;;;;;;7.67;7.67;;;;;-147.47;100.00;64613.53;5042184;28;28585;-77
2022/04/13 05:25:47;;;;;;;;;7.33;6.00;;;;;-147.47;100.00;64613.53;5030609;28;29127;-76
2022/04/13 05:28:12;;;;;;;;;8.67;8.67;;;;;-147.47;100.00;64613.53;5047319;28;29048;-80
2022/04/13 05:30:38;;;;;;;;;8.67;7.33;;;;;-147.47;100.00;64613.53;5040933;28;28580;-79
2022/04/13 05:33:06;;;;;;;;;8.00;5.00;;;;;-147.47;100.00;64613.53;5061094;28;28990;-79
2022/04/13 05:35:31;;;;;;;;;7.33;7.33;;;;;-147.47;100.00;64613.53;5039997;28;29954;-84
2022/04/13 05:37:59;;;;;;;;;8.00;6.00;;;;;-147.47;100.00;64613.53;5055160;28;28630;-89
2022/04/13 05:40:24;;;;;;;;;8.67;8.67;;;;;-147.47;100.00;64613.53;5048470;28;28743;-86
2022/04/13 05:42:53;;;;;;;;;8.33;7.00;;;;;-147.47;100.00;64613.53;5049893;28;30236;-85
2022/04/13 05:45:18;;;;;;;;;8.33;7.33;;;;;-147.47;100.00;64613.53;5042791;28;28889;-83
2022/04/13 05:47:52;;;;;;;;;7.67;5.67;;;;;-147.47;100.00;64613.53;5056068;28;28560;-80
2022/04/13 05:50:26;;;;;;;;;6.00;6.00;;;;;-147.47;100.00;64613.53;5051830;28;28620;-86
2022/04/13 05:52:55;;;;;;;;;5.33;5.33;;;;;-147.47;100.00;64613.53;5049528;28;28532;-83
2022/04/13 05:55:27;;;;;;;;;7.33;5.67;;;;;-147.47;100.00;64613.53;5055257;28;28680;-85
2022/04/13 05:57:52;;;;;;;;;8.00;7.33;;;;;-147.47;100.00;64613.53;5055833;28;28519;-79
2022/04/13 06:00:18;;;;;;;;;4.00;4.00;;;;;-147.47;100.00;64613.53;5050069;28;28766;-82
2022/04/13 06:02:44;;;;;;;;;4.67;4.67;;;;;-147.47;100.00;64613.53;5055626;28;28777;-84
2022/04/13 06:05:11;;;;;;;;;6.33;6.33;;;;;-147.47;100.00;64613.53;5051958;28;28975;-79
2022/04/13 06:07:37;;;;;;;;;7.00;7.00;;;;;-147.47;100.00;64613.53;5041559;28;28851;-76
2022/04/13 06:10:05;;;;;;;;;14.00;9.00;;;;;-147.47;100.00;64613.53;5044327;28;28089;-77
2022/04/13 06:12:31;;;;;;;;;9.67;7.67;;;;;-147.47;100.00;64613.53;5040148;28;28847;-79
2022/04/13 06:15:12;;;;;;;;;6.00;6.00;;;;;-147.47;100.00;64613.53;5054578;28;29982;-80
2022/04/13 06:17:39;;;;;;;;;10.33;9.00;;;;;-147.47;100.00;64613.53;5050666;28;28702;-79
2022/04/13 06:20:06;;;;;;;;;9.00;8.00;;;;;-147.47;100.00;64613.53;5070249;28;28738;-81
2022/04/13 06:22:47;;;;;;;;;7.33;7.33;;;;;-147.47;100.00;64613.53;5055603;28;29062;-81
2022/04/13 06:25:13;;;;;;;;;7.33;5.67;;;;;-147.47;100.00;64613.53;5072570;28;28423;-83
2022/04/13 06:27:45;;;;;;;;;7.33;7.00;;;;;-147.47;100.00;64613.53;5067115;28;28845;-78
2022/04/13 06:30:47;;;;;;;;;9.67;9.67;;;;;-147.47;100.00;64613.53;5069913;28;28579;-83
2022/04/13 06:33:19;;;;;;;;;13.00;9.33;;;;;-147.47;100.00;64613.53;5056391;28;28137;-83
2022/04/13 06:35:45;;;;;;;;;8.00;8.00;;;;;-147.47;100.00;64613.53;5036378;28;30723;-77
2022/04/13 06:38:11;;;;;;;;;8.33;7.33;;;;;-147.47;100.00;64613.53;5039681;28;28446;-79
2022/04/13 06:40:36;;;;;;;;;8.33;7.67;;;;;-147.47;100.00;64613.53;5043546;28;28613;-82
2022/04/13 06:43:14;;;;;;;;;12.00;10.00;;;;;-147.47;100.00;64613.53;5044780;28;28867;-86
2022/04/13 06:45:40;;;;;;;;;12.33;10.00;;;;;-147.47;100.00;64613.53;5064661;28;28627;-80
2022/04/13 06:48:07;;;;;;;;;6.33;6.33;;;;;-147.47;100.00;64613.53;5054185;28;28390;-80
2022/04/13 06:50:34;;;;;;;;;9.33;9.33;;;;;-147.47;100.00;64613.53;5066758;28;27977;-79
2022/04/13 06:53:00;;;;;;;;;15.00;11.33;;;;;-147.47;100.00;64613.53;5067366;28;28798;-84
2022/04/13 06:55:29;;;;;;;;;8.00;7.33;;;;;-147.47;100.00;64613.53;5053726;28;28549;-86
2022/04/13 06:57:55;;;;;;;;;8.67;5.00;;;;;-147.47;100.00;64613.53;5059759;28;29899;-88
2022/04/13 07:00:22;;;;;;;;;9.00;9.00;;;;;-147.47;100.00;64613.53;5050749;28;28699;-87
2022/04/13 07:02:48;;;;;;;;;10.00;8.33;;;;;-147.47;100.00;64613.53;5048139;28;28973;-85
2022/04/13 07:08:50;;;;;;;;;8.33;8.00;;;;;-147.47;100.00;64613.53;5038044;28;28613;-83
2022/04/13 07:11:19;;;;;;;;;7.67;7.67;;;;;-147.47;100.00;64613.53;5055549;28;28862;-82
2022/04/13 07:13:57;;;;;;;;;9.00;9.00;;;;;-147.47;100.00;64613.53;5053169;28;28509;-86
2022/04/13 07:16:23;;;;;;;;;11.33;10.67;;;;;-147.47;100.00;64613.53;5047567;28;29786;-81
2022/04/13 07:18:48;;;;;;;;;9.33;9.33;;;;;-147.47;100.00;64613.53;5045826;28;29153;-83
2022/04/13 07:21:14;;;;;;;;;10.67;10.00;;;;;-147.47;100.00;64613.53;5038512;28;28828;-84
2022/04/13 07:23:39;;;;;;;;;9.33;9.33;;;;;-147.47;100.00;64613.53;5045237;28;28708;-83
2022/04/13 07:26:05;;;;;;;;;12.67;9.33;;;;;-147.47;100.00;64613.53;5053964;28;29928;-84
2022/04/13 07:28:31;;;;;;;;;11.00;9.67;;;;;-147.47;100.00;64613.53;5055356;28;28947;-76
2022/04/13 07:30:56;;;;;;;;;10.67;9.33;;;;;-147.47;100.00;64613.53;5069487;28;28655;-84
2022/04/13 07:33:23;;;;;;;;;12.67;9.67;;;;;-147.47;100.00;64613.53;5054082;28;29216;-85
2022/04/13 07:35:48;;;;;;;;;10.67;10.33;;;;;-147.47;100.00;64613.53;5072896;28;28783;-85
2022/04/13 07:38:14;;;;;;;;;11.67;9.33;;;;;-147.47;100.00;64613.53;5071437;28;28814;-79
2022/04/13 07:40:40;;;;;;;;;13.67;12.67;;;;;-147.47;100.00;64613.53;5071443;28;28936;-79
2022/04/13 07:43:09;;;;;;;;;11.67;11.00;;;;;-147.47;100.00;64613.53;5072690;28;28933;-79
2022/04/13 07:45:35;;;;;;;;;14.00;12.00;;;;;-147.47;100.00;64613.53;5057101;28;28645;-81
2022/04/13 07:48:00;;;;;;;;;11.33;10.67;;;;;-147.47;100.00;64613.53;5071958;28;28943;-81
2022/04/13 07:50:32;;;;;;;;;12.67;10.67;;;;;-147.47;100.00;64613.53;5073873;28;28620;-79
2022/04/13 07:52:58;;;;;;;;;13.00;12.00;;;;;-147.47;100.00;64613.53;5071745;28;28534;-79
2022/04/13 07:55:24;;;;;;;;;12.00;10.33;;;;;-147.47;100.00;64613.53;5066964;28;28634;-78
2022/04/13 07:57:49;;;;;;;;;14.33;11.00;;;;;-147.47;100.00;64613.53;5063038;28;30120;-77
2022/04/13 08:00:15;;;;;;;;;11.00;10.67;;;;;-147.47;100.00;64613.53;5048832;28;28750;-76
2022/04/13 08:02:42;;;;;;;;;16.33;14.33;;;;;-147.47;100.00;64613.53;5048866;28;28509;-78
2022/04/13 08:05:08;;;;;;;;;13.67;11.33;;;;;-147.47;100.00;64613.53;5047035;28;28651;-77
2022/04/13 08:07:34;;;;;;;;;13.33;12.00;;;;;-147.47;100.00;64613.53;5047287;28;28631;-77
2022/04/13 08:09:59;;;;;;;;;12.67;10.33;;;;;-147.47;100.00;64613.53;5047200;28;29022;-76
2022/04/13 08:12:31;;;;;;;;;12.00;12.00;;;;;-147.47;100.00;64613.53;5048021;28;28778;-82
2022/04/13 08:14:58;;;;;;;;;12.33;12.33;;;;;-147.47;100.00;64613.53;5052515;28;28973;-83
2022/04/13 08:17:24;;;;;;;;;14.33;13.67;;;;;-147.47;100.00;64613.53;5071204;28;28471;-85
2022/04/13 08:19:50;;;;;;;;;15.00;13.33;;;;;-147.47;100.00;64613.53;5054076;28;28604;-84
2022/04/13 08:22:17;;;;;;;;;18.33;13.67;;;;;-147.47;100.00;64613.53;5055888;28;29136;-82
2022/04/13 08:24:43;;;;;;;;;14.67;13.33;;;;;-147.47;100.00;64613.53;5058046;28;28593;-86
2022/04/13 08:27:12;;;;;;;;;13.00;11.33;;;;;-147.47;100.00;64613.53;5060621;28;29295;-90
2022/04/13 08:29:45;;;;;;;;;13.00;10.67;;;;;-147.47;100.00;64613.53;5035933;28;28538;-87
2022/04/13 08:32:11;;;;;;;;;13.00;10.33;;;;;-147.47;100.00;64613.53;5035979;28;30254;-88
2022/04/13 08:34:36;;;;;;;;;17.67;16.33;;;;;-147.47;100.00;64613.53;5039949;28;29289;-86
2022/04/13 08:37:02;;;;;;;;;14.67;10.33;;;;;-147.47;100.00;64613.53;5060900;28;28578;-85
2022/04/13 08:39:27;;;;;;;;;10.67;10.00;;;;;-147.47;100.00;64613.53;5053897;28;27840;-86
2022/04/13 08:41:58;;;;;;;;;13.00;13.00;;;;;-147.47;100.00;64613.53;5053317;28;30167;-87
2022/04/13 08:44:48;;;;;;;;;11.67;10.67;;;;;-147.47;100.00;64613.53;5039850;28;28578;-85
2022/04/13 08:47:23;;;;;;;;;14.33;11.00;;;;;-147.47;100.00;64613.53;5037585;28;28604;-82
2022/04/13 08:49:54;;;;;;;;;11.00;9.00;;;;;-147.47;100.00;64613.53;5034914;28;28665;-83
2022/04/13 08:52:39;;;;;;;;;11.33;10.33;;;;;-147.47;100.00;64613.53;5028381;28;29315;-77
2022/04/13 08:55:11;;;;;;;;;13.33;9.33;;;;;-147.47;100.00;64613.53;5032400;28;28505;-83
2022/04/13 08:57:40;;;;;;;;;10.33;9.33;;;;;-147.47;100.00;64613.53;5030640;28;28486;-80
2022/04/13 09:00:13;;;;;;;;;13.33;13.33;;;;;-147.47;100.00;64613.53;5057554;28;28480;-85
2022/04/13 09:02:47;;;;;;;;;14.33;13.67;;;;;-147.47;100.00;64613.53;5051381;28;29091;-78
2022/04/13 09:05:28;;;;;;;;;11.00;11.00;;;;;-147.47;100.00;64613.53;5049199;28;28410;-78
2022/04/13 09:08:23;;;;;;;;;19.00;16.33;;;;;-147.47;100.00;64613.53;5043497;28;28636;-80
2022/04/13 09:10:52;;;;;;;;;15.67;13.33;;;;;-147.47;100.00;64613.53;5027988;28;28599;-78
2022/04/13 09:13:24;;;;;;;;;16.33;13.67;;;;;-147.47;100.00;64613.53;5035091;28;28514;-88
2022/04/13 09:15:53;;;;;;;;;19.00;15.33;;;;;-147.47;100.00;64613.53;5034378;28;28593;-78
2022/04/13 09:18:27;;;;;;;;;21.00;17.67;;;;;-147.47;100.00;64613.53;5029748;28;28498;-78
2022/04/13 09:20:54;;;;;;;;;23.67;17.00;;;;;-147.47;100.00;64613.53;5041602;28;27967;-79
2022/04/13 09:27:07;;;;;;;;;19.33;17.33;;;;;-147.47;100.00;64613.53;5051262;28;28987;-78
2022/04/13 09:30:23;;;;;;;;;17.67;16.67;;;;;-147.47;100.00;64613.53;5021517;28;29004;-84
2022/04/13 09:33:03;;;;;;;;;16.67;16.67;;;;;-147.47;100.00;64613.53;5010899;28;29359;-79
2022/04/13 09:35:58;;;;;;;;;17.67;17.67;;;;;-147.47;100.00;64613.53;5029103;28;29086;-81
2022/04/13 09:38:24;;;;;;;;;18.00;14.33;;;;;-147.47;100.00;64613.53;5034319;28;28446;-83
2022/04/13 09:40:54;;;;;;;;;14.33;13.33;;;;;-147.47;100.00;64613.53;5038345;28;28478;-81
2022/04/13 09:43:24;;;;;;;;;18.67;17.00;;;;;-147.47;100.00;64613.53;5049411;28;28529;-82
2022/04/13 09:45:57;;;;;;;;;14.67;14.67;;;;;-147.47;100.00;64613.53;5045663;28;28812;-83
2022/04/13 09:51:16;;;;;;;;;9.67;8.67;;;;;-147.47;100.00;64613.53;5041052;28;28794;-83
2022/04/13 09:54:46;;;;;;;;;10.33;10.00;;;;;-147.47;100.00;64613.53;5038023;28;28127;-83
2022/04/13 10:07:39;;;;;;;;;10.67;9.67;;;;;-147.47;100.00;64613.53;4977876;28;28551;-83
2022/04/13 10:10:28;;;;;;;;;11.67;11.67;;;;;-147.47;100.00;64613.53;5040993;28;28562;-84
2022/04/13 10:12:55;;;;;;;;;10.67;9.67;;;;;-147.47;100.00;64613.53;5034710;28;30733;-81
2022/04/13 10:15:21;;;;;;;;;9.33;9.33;;;;;-147.47;100.00;64613.53;5050910;28;28496;-82
2022/04/13 10:18:10;;;;;;;;;16.33;10.00;;;;;-147.47;100.00;64613.53;5061223;28;28893;-81
2022/04/13 10:20:43;;;;;;;;;15.33;11.00;;;;;-147.47;100.00;64613.53;5053512;28;30225;-80
2022/04/13 10:23:09;;;;;;;;;11.00;11.00;;;;;-147.47;100.00;64613.53;5039859;28;28674;-83
2022/04/13 10:25:48;;;;;;;;;;;;;;;;;;;;;
2022/04/13 10:28:44;;;;;;;;;15.00;13.67;;;;;-147.47;100.00;64613.53;5039303;28;54350;-81
2022/04/13 10:31:10;;;;;;;;;12.33;10.33;;;;;-147.47;100.00;64613.53;5042041;28;28363;-81
2022/04/13 10:33:51;;;;;;;;;16.00;13.33;;;;;-147.47;100.00;64613.53;5037801;28;29675;-82
2022/04/13 10:36:22;;;;;;;;;12.67;11.33;;;;;-147.47;100.00;64613.53;5050084;28;28721;-79
2022/04/13 10:38:47;;;;;;;;;11.33;9.33;;;;;-147.47;100.00;64613.53;5032175;28;28475;-82
2022/04/13 10:41:20;;;;;;;;;9.33;7.33;;;;;-147.47;100.00;64613.53;5034952;28;29252;-82
2022/04/13 10:43:52;;;;;;;;;7.00;5.67;;;;;-147.47;100.00;64613.53;5019017;28;29008;-81
2022/04/13 10:46:20;;;;;;;;;6.33;6.33;;;;;-147.47;100.00;64613.53;5059101;28;27931;-84
2022/04/13 10:48:51;;;;;;;;;6.00;5.67;;;;;-147.47;100.00;64613.53;5080385;28;28533;-83
2022/04/13 10:51:28;;;;;;;;;11.33;6.67;;;;;-147.47;100.00;64613.53;5050095;28;29345;-80
2022/04/13 10:54:01;;;;;;;;;9.33;7.33;;;;;-147.47;100.00;64613.53;5032267;28;28795;-81
2022/04/13 10:56:30;;;;;;;;;8.75;7.75;;;;;-147.47;100.00;64613.53;5030891;28;28844;-82
2022/04/13 10:59:01;;;;;;;;;9.67;8.67;;;;;-147.47;100.00;64613.53;5036087;28;28683;-80
2022/04/13 11:01:58;;;;;;;;;8.33;8.33;;;;;-147.47;100.00;64613.53;5049712;28;28642;-80
2022/04/13 11:04:28;;;;;;;;;5.67;5.00;;;;;-147.47;100.00;64613.53;5057489;28;28458;-85
2022/04/13 11:06:55;;;;;;;;;6.00;5.00;;;;;-147.47;100.00;64613.53;5043031;28;29129;-81
2022/04/13 11:10:00;;;;;;;;;7.50;5.75;;;;;-147.47;100.00;64613.53;5041461;28;28631;-84
2022/04/13 11:12:46;;;;;;;;;6.00;6.00;;;;;-147.47;100.00;64613.53;5040683;28;28742;-84
2022/04/13 11:15:12;;;;;;;;;4.00;4.00;;;;;-147.47;100.00;64613.53;5032543;28;31065;-84
2022/04/13 11:17:42;;;;;;;;;4.00;4.00;;;;;-147.47;100.00;64613.53;5052078;28;28841;-84
2022/04/13 11:20:32;;;;;;;;;24.33;18.00;;;;;-147.47;100.00;64613.53;5039470;28;28941;-84
2022/04/13 11:23:09;;;;;;;;;6.00;6.00;;;;;-147.47;100.00;64613.53;5035542;28;28670;-81
2022/04/13 11:25:54;;;;;;;;;23.00;20.00;;;;;-147.47;100.00;64613.53;5046362;28;30416;-84
2022/04/13 11:28:30;;;;;;;;;7.50;6.50;;;;;-147.47;100.00;64613.53;5054661;28;28644;-85
2022/04/13 11:31:02;;;;;;;;;6.00;6.00;;;;;-147.47;100.00;64613.53;5036078;28;28550;-83
2022/04/13 11:33:50;;;;;;;;;13.00;10.67;;;;;-147.47;100.00;64613.53;5044705;28;28721;-85
2022/04/13 11:36:20;;;;;;;;;8.00;8.00;;;;;-147.47;100.00;64613.53;5055711;28;29623;-84